createdAt,value
2023-04-30T00:00:59.342Z,6.80
2023-04-30T00:04:21.174Z,6.80
2023-04-30T00:07:42.738Z,6.80
2023-04-30T00:11:03.949Z,6.80
2023-04-30T00:14:26.807Z,6.70
2023-04-30T00:17:48.373Z,6.60
2023-04-30T00:21:09.843Z,6.60
2023-04-30T00:24:31.496Z,6.60
2023-04-30T00:27:52.711Z,6.60
2023-04-30T00:31:15.517Z,6.50
2023-04-30T00:34:36.911Z,6.50
2023-04-30T00:37:58.282Z,6.50
2023-04-30T00:41:20.123Z,6.40
2023-04-30T00:44:41.268Z,6.40
2023-04-30T00:48:04.464Z,6.40
2023-04-30T00:51:26.306Z,6.30
2023-04-30T00:54:47.687Z,6.30
2023-04-30T00:58:09.477Z,6.20
2023-04-30T01:01:31.698Z,6.30
2023-04-30T01:04:55.764Z,6.20
2023-04-30T01:08:17.154Z,6.20
2023-04-30T01:11:50.836Z,6.10
2023-04-30T01:15:19.499Z,6.10
2023-04-30T01:18:46.110Z,6.10
2023-04-30T01:22:16.012Z,6.20
2023-04-30T01:25:52.703Z,6.20
2023-04-30T01:29:17.600Z,6.20
2023-04-30T01:32:38.929Z,6.10
2023-04-30T01:36:14.822Z,6.00
2023-04-30T01:39:51.678Z,5.90
2023-04-30T01:43:24.602Z,5.90
2023-04-30T01:46:55.638Z,5.90
2023-04-30T01:50:26.235Z,5.90
2023-04-30T01:53:48.018Z,5.90
2023-04-30T01:57:14.096Z,5.90
2023-04-30T02:00:35.960Z,5.90
2023-04-30T02:03:58.969Z,5.90
2023-04-30T02:07:32.866Z,5.90
2023-04-30T02:10:54.329Z,5.90
2023-04-30T02:14:15.876Z,5.90
2023-04-30T02:17:37.436Z,5.80
2023-04-30T02:21:00.305Z,5.70
2023-04-30T02:24:21.803Z,5.70
2023-04-30T02:27:43.432Z,5.70
2023-04-30T02:31:04.974Z,5.70
2023-04-30T02:34:26.838Z,5.70
2023-04-30T02:37:49.235Z,5.80
2023-04-30T02:41:10.748Z,5.80
2023-04-30T02:44:32.163Z,5.80
2023-04-30T02:47:53.684Z,5.80
2023-04-30T02:51:15.096Z,5.90
2023-04-30T02:54:38.052Z,5.90
2023-04-30T02:57:59.723Z,5.90
2023-04-30T03:01:21.152Z,5.90
2023-04-30T03:04:42.377Z,5.80
2023-04-30T03:08:04.012Z,5.80
2023-04-30T03:11:26.962Z,5.70
2023-04-30T03:14:48.247Z,5.70
2023-04-30T03:18:09.706Z,5.70
2023-04-30T03:21:31.043Z,5.60
2023-04-30T03:24:52.280Z,5.60
2023-04-30T03:28:15.128Z,5.60
2023-04-30T03:31:36.716Z,5.60
2023-04-30T03:34:58.023Z,5.60
2023-04-30T03:38:19.627Z,5.50
2023-04-30T03:41:41.422Z,5.50
2023-04-30T03:45:04.503Z,5.60
2023-04-30T03:48:25.852Z,5.60
2023-04-30T03:51:47.267Z,5.60
2023-04-30T03:55:09.225Z,5.60
2023-04-30T03:58:30.912Z,5.60
2023-04-30T04:01:53.440Z,5.60
2023-04-30T04:05:14.858Z,5.60
2023-04-30T04:08:36.692Z,5.60
2023-04-30T04:11:58.239Z,5.60
2023-04-30T04:15:19.697Z,5.70
2023-04-30T04:18:42.589Z,5.80
2023-04-30T04:22:04.420Z,5.70
2023-04-30T04:25:25.776Z,5.70
2023-04-30T04:28:47.606Z,5.60
2023-04-30T04:32:10.312Z,5.70
2023-04-30T04:35:32.912Z,5.70
2023-04-30T04:38:54.517Z,5.70
2023-04-30T04:42:16.521Z,5.70
2023-04-30T04:45:40.699Z,5.80
2023-04-30T04:49:02.122Z,5.80
2023-04-30T04:52:24.940Z,5.90
2023-04-30T04:55:46.018Z,6.00
2023-04-30T04:59:08.113Z,6.10
2023-04-30T05:02:30.043Z,6.10
2023-04-30T05:05:51.775Z,6.30
2023-04-30T05:09:14.730Z,6.40
2023-04-30T05:12:36.272Z,6.40
2023-04-30T05:15:57.910Z,6.50
2023-04-30T05:19:19.488Z,6.60
2023-04-30T05:22:41.035Z,6.90
2023-04-30T05:26:03.883Z,7.10
2023-04-30T05:29:25.056Z,7.40
2023-04-30T05:32:50.599Z,7.70
2023-04-30T05:36:12.058Z,8.00
2023-04-30T05:39:33.490Z,8.60
2023-04-30T05:42:56.193Z,8.90
2023-04-30T05:46:17.645Z,9.60
2023-04-30T05:49:39.119Z,10.00
2023-04-30T05:53:00.602Z,10.60
2023-04-30T05:56:23.812Z,11.10
2023-04-30T05:59:46.450Z,11.30
2023-04-30T06:03:08.640Z,11.90
2023-04-30T06:06:31.229Z,12.40
2023-04-30T06:09:52.985Z,12.50
2023-04-30T06:13:15.253Z,12.50
2023-04-30T06:16:39.064Z,12.40
2023-04-30T06:20:06.818Z,12.80
2023-04-30T06:23:28.224Z,13.30
2023-04-30T06:26:49.696Z,13.60
2023-04-30T06:30:11.823Z,13.80
2023-04-30T06:33:34.566Z,13.70
2023-04-30T06:36:56.635Z,13.50
2023-04-30T06:40:17.942Z,12.90
2023-04-30T06:43:39.532Z,12.40
2023-04-30T06:47:00.911Z,12.30
2023-04-30T06:50:23.800Z,12.40
2023-04-30T06:53:45.281Z,12.40
2023-04-30T06:57:07.089Z,12.50
2023-04-30T07:00:28.652Z,12.70
2023-04-30T07:03:51.462Z,12.80
2023-04-30T07:07:13.897Z,13.50
2023-04-30T07:10:35.424Z,13.70
2023-04-30T07:13:56.834Z,13.80
2023-04-30T07:17:18.194Z,14.30
2023-04-30T07:20:39.793Z,14.90
2023-04-30T07:24:02.682Z,14.90
2023-04-30T07:27:24.340Z,15.10
2023-04-30T07:30:45.795Z,15.20
2023-04-30T07:34:07.319Z,15.90
2023-04-30T07:37:28.665Z,15.40
2023-04-30T07:40:51.491Z,14.90
2023-04-30T07:44:13.358Z,15.90
2023-04-30T07:47:34.565Z,16.40
2023-04-30T07:50:56.673Z,16.10
2023-04-30T07:54:18.142Z,16.40
2023-04-30T07:57:41.280Z,16.60
2023-04-30T08:01:03.044Z,16.70
2023-04-30T08:04:24.527Z,17.70
2023-04-30T08:07:46.207Z,17.90
2023-04-30T08:11:07.432Z,17.10
2023-04-30T08:14:30.973Z,17.20
2023-04-30T08:17:53.027Z,16.90
2023-04-30T08:21:14.666Z,15.90
2023-04-30T08:24:35.852Z,16.30
2023-04-30T08:27:57.399Z,16.80
2023-04-30T08:31:20.393Z,17.70
2023-04-30T08:34:43.406Z,18.30
2023-04-30T08:38:04.778Z,18.80
2023-04-30T08:41:28.299Z,18.70
2023-04-30T08:44:49.567Z,18.70
2023-04-30T08:48:13.972Z,19.00
2023-04-30T08:51:36.095Z,17.80
2023-04-30T08:54:59.750Z,18.40
2023-04-30T08:58:21.256Z,18.60
2023-04-30T09:01:42.912Z,18.10
2023-04-30T09:05:11.401Z,18.20
2023-04-30T09:08:43.272Z,18.40
2023-04-30T09:12:18.397Z,18.40
2023-04-30T09:15:41.618Z,17.90
2023-04-30T09:19:02.988Z,17.40
2023-04-30T09:22:25.933Z,17.50
2023-04-30T09:25:47.315Z,17.70
2023-04-30T09:29:10.180Z,17.00
2023-04-30T09:32:31.724Z,16.70
2023-04-30T09:35:53.403Z,16.40
2023-04-30T09:39:17.501Z,15.90
2023-04-30T09:42:38.840Z,15.60
2023-04-30T09:46:01.143Z,15.30
2023-04-30T09:49:22.978Z,15.70
2023-04-30T09:52:52.841Z,16.20
2023-04-30T09:56:21.141Z,16.40
2023-04-30T09:59:45.991Z,16.20
2023-04-30T10:03:09.236Z,16.60
2023-04-30T10:06:35.357Z,17.60
2023-04-30T10:10:03.336Z,18.40
2023-04-30T10:13:31.242Z,19.00
2023-04-30T10:16:57.518Z,19.30
2023-04-30T10:20:22.639Z,19.30
2023-04-30T10:23:45.431Z,20.40
2023-04-30T10:27:07.519Z,21.60
2023-04-30T10:30:31.821Z,22.50
2023-04-30T10:34:05.660Z,20.90
2023-04-30T10:37:35.644Z,21.70
2023-04-30T10:40:58.303Z,21.80
2023-04-30T10:44:24.195Z,21.80
2023-04-30T10:47:47.590Z,22.40
2023-04-30T10:51:10.292Z,22.40
2023-04-30T10:54:34.379Z,22.00
2023-04-30T10:57:55.603Z,22.10
2023-04-30T11:01:17.823Z,22.00
2023-04-30T11:05:12.325Z,21.50
2023-04-30T11:08:35.363Z,20.60
2023-04-30T11:12:03.562Z,20.90
2023-04-30T11:15:27.240Z,21.10
2023-04-30T11:18:48.540Z,20.90
2023-04-30T11:22:30.035Z,22.10
2023-04-30T11:25:55.518Z,22.90
2023-04-30T11:29:17.546Z,23.40
2023-04-30T11:32:40.263Z,23.60
2023-04-30T11:36:02.868Z,22.80
2023-04-30T11:39:26.731Z,22.20
2023-04-30T11:42:48.375Z,22.40
2023-04-30T11:46:11.994Z,22.90
2023-04-30T11:49:33.833Z,22.60
2023-04-30T11:52:56.303Z,23.00
2023-04-30T11:56:22.024Z,24.40
2023-04-30T11:59:43.717Z,26.10
2023-04-30T12:03:05.563Z,26.70
2023-04-30T12:06:28.624Z,26.60
2023-04-30T12:09:54.031Z,24.90
2023-04-30T12:13:17.085Z,24.90
2023-04-30T12:16:45.500Z,25.50
2023-04-30T12:20:07.801Z,25.60
2023-04-30T12:23:29.054Z,24.50
2023-04-30T12:26:54.136Z,24.10
2023-04-30T12:30:21.277Z,25.60
2023-04-30T12:33:42.811Z,26.60
2023-04-30T12:37:04.308Z,27.10
2023-04-30T12:40:28.423Z,27.70
2023-04-30T12:43:50.046Z,27.50
2023-04-30T12:47:14.199Z,27.10
2023-04-30T12:50:35.868Z,26.40
2023-04-30T12:53:57.441Z,26.80
2023-04-30T12:57:19.476Z,26.60
2023-04-30T13:00:45.129Z,26.80
2023-04-30T13:04:08.291Z,26.30
2023-04-30T13:07:39.470Z,25.30
2023-04-30T13:11:00.999Z,25.40
2023-04-30T13:14:22.532Z,25.70
2023-04-30T13:17:44.590Z,26.00
2023-04-30T13:21:07.696Z,25.40
2023-04-30T13:24:28.906Z,24.60
2023-04-30T13:27:50.467Z,23.20
2023-04-30T13:31:11.926Z,22.70
2023-04-30T13:34:33.080Z,21.80
2023-04-30T13:37:57.705Z,21.10
2023-04-30T13:41:20.523Z,19.80
2023-04-30T13:44:41.865Z,19.00
2023-04-30T13:48:03.527Z,18.90
2023-04-30T13:51:25.267Z,19.00
2023-04-30T13:54:48.070Z,18.80
2023-04-30T13:58:10.295Z,18.40
2023-04-30T14:01:32.764Z,18.30
2023-04-30T14:05:05.225Z,18.30
2023-04-30T14:08:27.660Z,18.40
2023-04-30T14:11:51.115Z,17.90
2023-04-30T14:15:12.725Z,17.70
2023-04-30T14:18:34.165Z,17.90
2023-04-30T14:21:55.487Z,17.90
2023-04-30T14:25:17.424Z,17.90
2023-04-30T14:28:40.297Z,18.00
2023-04-30T14:32:02.212Z,17.80
2023-04-30T14:35:23.872Z,17.40
2023-04-30T14:38:45.114Z,17.10
2023-04-30T14:42:06.648Z,17.30
2023-04-30T14:45:29.475Z,17.10
2023-04-30T14:48:50.876Z,17.10
2023-04-30T14:52:12.389Z,17.30
2023-04-30T14:55:33.851Z,17.10
2023-04-30T14:58:55.213Z,17.20
2023-04-30T15:02:17.856Z,16.90
2023-04-30T15:05:39.474Z,16.90
2023-04-30T15:09:01.207Z,16.90
2023-04-30T15:12:23.344Z,17.00
2023-04-30T15:15:46.932Z,17.20
2023-04-30T15:19:09.688Z,17.20
2023-04-30T15:22:31.106Z,17.00
2023-04-30T15:25:53.073Z,17.00
2023-04-30T15:29:14.689Z,16.80
2023-04-30T15:32:35.961Z,16.80
2023-04-30T15:35:59.902Z,16.80
2023-04-30T15:39:21.963Z,16.80
2023-04-30T15:42:43.252Z,16.70
2023-04-30T15:46:05.000Z,16.50
2023-04-30T15:49:26.585Z,16.30
2023-04-30T15:52:49.668Z,16.30
2023-04-30T15:56:10.876Z,16.30
2023-04-30T15:59:32.020Z,16.30
2023-04-30T16:02:53.577Z,16.30
2023-04-30T16:06:15.312Z,16.10
2023-04-30T16:09:39.580Z,16.20
2023-04-30T16:13:01.070Z,16.20
2023-04-30T16:16:22.506Z,16.20
2023-04-30T16:19:43.920Z,16.20
2023-04-30T16:23:06.033Z,16.10
2023-04-30T16:26:28.883Z,16.10
2023-04-30T16:29:50.471Z,16.00
2023-04-30T16:33:11.841Z,16.00
2023-04-30T16:36:33.290Z,16.00
2023-04-30T16:39:54.684Z,15.90
2023-04-30T16:43:17.347Z,15.80
2023-04-30T16:46:38.780Z,15.80
2023-04-30T16:50:00.226Z,15.80
2023-04-30T16:53:21.976Z,15.80
2023-04-30T16:56:44.208Z,15.80
2023-04-30T17:00:08.737Z,15.90
2023-04-30T17:03:30.776Z,15.80
2023-04-30T17:06:52.443Z,15.80
2023-04-30T17:10:14.872Z,15.70
2023-04-30T17:13:37.525Z,15.60
2023-04-30T17:17:00.149Z,15.60
2023-04-30T17:20:21.757Z,15.50
2023-04-30T17:23:43.060Z,15.40
2023-04-30T17:27:05.516Z,15.40
2023-04-30T17:30:27.093Z,15.30
2023-04-30T17:33:49.886Z,15.30
2023-04-30T17:37:11.246Z,15.30
2023-04-30T17:40:32.865Z,15.10
2023-04-30T17:43:54.643Z,15.00
2023-04-30T17:47:16.357Z,14.90
2023-04-30T17:50:39.488Z,14.90
2023-04-30T17:54:01.099Z,14.80
2023-04-30T17:57:22.397Z,14.80
2023-04-30T18:00:44.751Z,14.70
2023-04-30T18:04:08.592Z,14.70
2023-04-30T18:07:31.734Z,14.60
2023-04-30T18:10:54.664Z,14.60
2023-04-30T18:14:16.202Z,14.60
2023-04-30T18:17:37.750Z,14.50
2023-04-30T18:20:58.969Z,14.30
2023-04-30T18:24:27.304Z,14.20
2023-04-30T18:27:48.785Z,14.20
2023-04-30T18:31:11.457Z,14.10
2023-04-30T18:34:33.128Z,14.00
2023-04-30T18:37:55.573Z,13.90
2023-04-30T18:41:18.432Z,13.80
2023-04-30T18:44:39.655Z,13.70
2023-04-30T18:48:01.040Z,13.70
2023-04-30T18:51:22.349Z,13.60
2023-04-30T18:54:43.864Z,13.50
2023-04-30T18:58:07.151Z,13.50
2023-04-30T19:01:28.841Z,13.50
2023-04-30T19:04:50.357Z,13.40
2023-04-30T19:08:11.656Z,13.40
2023-04-30T19:11:35.430Z,13.30
2023-04-30T19:14:58.721Z,13.10
2023-04-30T19:18:20.101Z,13.10
2023-04-30T19:21:41.646Z,13.10
2023-04-30T19:25:03.556Z,13.00
2023-04-30T19:28:24.863Z,13.00
2023-04-30T19:31:47.717Z,12.90
2023-04-30T19:35:09.717Z,12.80
2023-04-30T19:38:31.045Z,12.70
2023-04-30T19:41:52.450Z,12.70
2023-04-30T19:45:13.919Z,12.60
2023-04-30T19:48:36.866Z,12.50
2023-04-30T19:51:59.301Z,12.50
2023-04-30T19:55:21.339Z,12.40
2023-04-30T19:58:43.798Z,12.20
2023-04-30T20:02:05.982Z,12.10
2023-04-30T20:05:29.405Z,12.00
2023-04-30T20:08:50.622Z,11.90
2023-04-30T20:12:12.181Z,11.80
2023-04-30T20:15:33.859Z,11.80
2023-04-30T20:18:54.801Z,11.80
2023-04-30T20:22:17.660Z,11.70
2023-04-30T20:25:39.349Z,11.70
2023-04-30T20:29:00.987Z,11.70
2023-04-30T20:32:22.664Z,11.70
2023-04-30T20:35:46.170Z,11.60
2023-04-30T20:39:09.516Z,11.60
2023-04-30T20:42:31.101Z,11.60
2023-04-30T20:45:53.534Z,11.50
2023-04-30T20:49:15.193Z,11.50
2023-04-30T20:52:36.707Z,11.40
2023-04-30T20:56:01.193Z,11.40
2023-04-30T20:59:22.857Z,11.30
2023-04-30T21:02:44.468Z,11.30
2023-04-30T21:06:07.733Z,11.20
2023-04-30T21:09:29.091Z,11.20
2023-04-30T21:12:51.635Z,11.10
2023-04-30T21:16:12.920Z,11.00
2023-04-30T21:19:34.501Z,11.00
2023-04-30T21:22:56.562Z,10.90
2023-04-30T21:26:17.920Z,10.90
2023-04-30T21:29:43.635Z,10.90
2023-04-30T21:33:05.293Z,10.80
2023-04-30T21:36:29.023Z,10.70
2023-04-30T21:39:50.415Z,10.70
2023-04-30T21:43:11.942Z,10.70
2023-04-30T21:46:34.524Z,10.70
2023-04-30T21:49:56.250Z,10.50
2023-04-30T21:53:18.331Z,10.50
2023-04-30T21:56:40.984Z,10.40
2023-04-30T22:00:04.273Z,10.30
2023-04-30T22:03:27.031Z,10.20
2023-04-30T22:06:48.577Z,10.30
2023-04-30T22:10:10.437Z,10.30
2023-04-30T22:13:31.963Z,10.20
2023-04-30T22:16:54.266Z,10.20
2023-04-30T22:20:17.444Z,10.10
2023-04-30T22:23:39.039Z,10.10
2023-04-30T22:27:01.556Z,10.00
2023-04-30T22:30:23.227Z,10.00
2023-04-30T22:33:44.561Z,9.90
2023-04-30T22:37:07.207Z,9.90
2023-04-30T22:40:28.606Z,9.90
2023-04-30T22:43:50.461Z,9.80
2023-04-30T22:47:11.769Z,9.70
2023-04-30T22:50:33.021Z,9.60
2023-04-30T22:53:57.031Z,9.60
2023-04-30T22:57:18.385Z,9.50
2023-04-30T23:00:39.908Z,9.60
2023-04-30T23:04:05.056Z,9.50
2023-04-30T23:07:26.294Z,9.40
2023-04-30T23:10:49.164Z,9.40
2023-04-30T23:14:10.654Z,9.50
2023-04-30T23:17:32.334Z,9.40
2023-04-30T23:20:58.599Z,9.30
2023-04-30T23:24:19.986Z,9.30
2023-04-30T23:27:43.979Z,9.30
2023-04-30T23:31:05.542Z,9.20
2023-04-30T23:34:26.976Z,9.20
2023-04-30T23:37:49.788Z,9.20
2023-04-30T23:41:11.308Z,9.10
2023-04-30T23:44:34.177Z,9.10
2023-04-30T23:47:56.545Z,9.10
2023-04-30T23:51:19.009Z,9.00
2023-04-30T23:54:40.422Z,8.90
2023-04-30T23:58:01.976Z,8.90
